Nashville, TN

5:06 AM CST on February 26, 2017 (GMT -0600)
Nashville International | | Change Station
Active Advisory: Special Statement

Elev 597 ft 36.12 °N, 86.68 °W | Updated 13 minutes ago

Clear
Clear
28 °F
Feels Like 24 °F
N
4
Wind Variable Wind from South

Today
High -- | Low -- °F
--% Chance of Precip.
Yesterday
High -- | Low -- °F
Precip. -- in
Pressure 30.23 in
Visibility 10.0 miles
Clouds Clear
Windchill 24 °F
Dew Point 22 °F
Humidity 78%
Rainfall 0.00 in
Snow Depth Not available.
6:20 AM 5:39 PM
Waning Crescent, 0% visible
METAR KBNA 261053Z 18003KT 10SM CLR M02/M06 A3022 RMK AO2 SLP237 T10221056
Pressure 30.23 in
Visibility 10.0 miles
Clouds Clear
Windchill 24 °F
Dew Point 22 °F
Humidity 78%
Rainfall 0.00 in
Snow Depth Not available.
6:20 AM 5:39 PM
Waning Crescent, 0% visible
METAR KBNA 261053Z 18003KT 10SM CLR M02/M06 A3022 RMK AO2 SLP237 T10221056

Get Your Daily Forecast Email!

Thanks for signing up!

Be on the lookout for a verification email in your inbox.

You'll start receiving the daily forecast at 8 AM.

×

10-Day Weather Forecast

Almanac

Astronomy

Feb. 26, 2017 Rise Set
Actual Time
Civil Twilight
Nautical Twilight
Astronomical Twilight
Moon
Length of Visible Light
Length of Day
Tomorrow will be .
, % of the Moon is Illuminated

Today's Extremes

State Highs State Lows

Community

WunderPhotos

Upload Photos

1,962,540 photos uploaded!

WunderBlog® & News

Nearby

Air Quality

  Air Quality AQ Index Pollutant
Not available.

Snow Depth

Station Depth Elevation

Earthquake Activity

City Distance Mag. Time & Date
Minimum magnitude displayed is 2.5.

Coastal Water Temperatures

Place Temperature

Stations

Nearby Weather Stations

Station Location Temp. Windchill Dew Point Humidity Wind Precip. Elev Updated Type
                   

Watches & Warnings

Special Statement
Issued: 3:40 PM CST Feb. 25, 2017 – National Weather Service

... Freezing temperatures are forecast tonight in middle Tennessee...

A hard freeze is forecast tonight in middle Tennessee, with lows
by sunrise Sunday expected to be in the middle 20s. If you happen
to have Sat any tender plants outside to soak up the sun over
these recent warm days, you should bring them indoors this
evening before the temperatures fall to freezing.

It's just a one night freeze, though, because lows by Sunday
night will be back above the freezing mark.

19